createdAt,value
2024-01-24T00:00:02.915Z,47.63
2024-01-24T00:02:39.202Z,44.03
2024-01-24T00:05:07.902Z,39.47
2024-01-24T00:07:36.056Z,26.50
2024-01-24T00:10:04.610Z,64.45
2024-01-24T00:12:33.018Z,50.15
2024-01-24T00:15:01.376Z,52.95
2024-01-24T00:17:30.805Z,64.32
2024-01-24T00:19:59.157Z,50.67
2024-01-24T00:22:27.441Z,58.73
2024-01-24T00:24:56.029Z,64.65
2024-01-24T00:27:24.700Z,60.28
2024-01-24T00:29:52.892Z,67.55
2024-01-24T00:32:20.952Z,67.40
2024-01-24T00:34:49.454Z,54.75
2024-01-24T00:37:17.747Z,77.30
2024-01-24T00:39:48.079Z,77.63
2024-01-24T00:42:16.337Z,63.30
2024-01-24T00:44:45.702Z,68.35
2024-01-24T00:47:13.846Z,48.78
2024-01-24T00:49:41.869Z,55.67
2024-01-24T00:52:10.210Z,59.50
2024-01-24T00:54:39.155Z,71.50
2024-01-24T00:57:07.312Z,62.33
2024-01-24T00:59:35.924Z,62.78
2024-01-24T01:02:04.286Z,54.00
2024-01-24T01:04:35.465Z,37.65
2024-01-24T01:07:03.694Z,18.42
2024-01-24T01:09:31.805Z,22.98
2024-01-24T01:12:00.569Z,29.10
2024-01-24T01:14:28.837Z,21.07
2024-01-24T01:16:57.448Z,16.02
2024-01-24T01:19:25.749Z,21.27
2024-01-24T01:21:56.852Z,18.08
2024-01-24T01:24:25.076Z,22.73
2024-01-24T01:26:53.167Z,24.92
2024-01-24T01:29:21.403Z,22.90
2024-01-24T01:31:49.524Z,24.70
2024-01-24T01:34:17.901Z,28.30
2024-01-24T01:36:46.123Z,17.55
2024-01-24T01:39:14.178Z,19.90
2024-01-24T01:42:09.264Z,21.00
2024-01-24T01:44:45.766Z,14.30
2024-01-24T01:47:18.462Z,20.65
2024-01-24T01:49:47.377Z,21.08
2024-01-24T01:52:17.084Z,19.95
2024-01-24T01:54:45.836Z,22.38
2024-01-24T01:57:15.498Z,22.97
2024-01-24T01:59:44.241Z,21.88
2024-01-24T02:02:12.677Z,21.83
2024-01-24T02:04:40.901Z,21.30
2024-01-24T02:07:09.359Z,19.13
2024-01-24T02:09:37.909Z,20.45
2024-01-24T02:12:06.211Z,20.55
2024-01-24T02:14:34.932Z,28.42
2024-01-24T02:17:03.611Z,25.33
2024-01-24T02:19:32.517Z,27.23
2024-01-24T02:22:00.717Z,20.23
2024-01-24T02:24:28.922Z,23.38
2024-01-24T02:26:57.241Z,19.45
2024-01-24T02:29:25.312Z,19.50
2024-01-24T02:32:43.677Z,18.58
2024-01-24T02:35:12.169Z,19.53
2024-01-24T02:37:40.341Z,22.95
2024-01-24T02:40:09.098Z,19.42
2024-01-24T02:42:37.798Z,23.20
2024-01-24T02:45:07.867Z,21.50
2024-01-24T02:47:36.549Z,23.30
2024-01-24T02:50:05.755Z,19.35
2024-01-24T02:52:33.861Z,14.20
2024-01-24T02:55:02.622Z,16.27
2024-01-24T02:57:31.688Z,28.27
2024-01-24T02:59:59.982Z,28.80
2024-01-24T03:02:28.131Z,27.85
2024-01-24T03:04:56.286Z,21.50
2024-01-24T03:07:24.614Z,17.03
2024-01-24T03:09:53.092Z,21.70
2024-01-24T03:12:21.246Z,17.88
2024-01-24T03:19:59.775Z,18.13
2024-01-24T03:22:28.101Z,15.32
2024-01-24T03:24:56.572Z,18.83
2024-01-24T03:27:25.013Z,15.90
2024-01-24T03:29:53.407Z,17.15
2024-01-24T03:32:21.558Z,17.10
2024-01-24T03:35:02.726Z,17.58
2024-01-24T03:37:32.790Z,20.02
2024-01-24T03:40:01.352Z,17.63
2024-01-24T03:42:33.197Z,11.15
2024-01-24T03:45:02.272Z,12.70
2024-01-24T03:47:32.228Z,8.35
2024-01-24T03:50:00.448Z,8.27
2024-01-24T03:52:28.945Z,9.88
2024-01-24T03:54:57.243Z,16.13
2024-01-24T03:57:25.472Z,14.60
2024-01-24T03:59:53.828Z,11.83
2024-01-24T04:02:21.935Z,15.02
2024-01-24T04:04:50.298Z,10.82
2024-01-24T04:07:18.674Z,13.13
2024-01-24T04:09:47.234Z,13.53
2024-01-24T04:12:15.366Z,12.68
2024-01-24T04:14:43.569Z,18.20
2024-01-24T04:17:11.827Z,8.10
2024-01-24T04:19:40.239Z,5.10
2024-01-24T04:22:10.128Z,18.35
2024-01-24T04:24:38.572Z,14.48
2024-01-24T04:27:08.144Z,18.90
2024-01-24T04:29:36.334Z,16.10
2024-01-24T04:32:04.960Z,18.38
2024-01-24T04:34:33.120Z,16.23
2024-01-24T04:37:01.348Z,20.27
2024-01-24T04:39:30.444Z,19.20
2024-01-24T04:42:05.648Z,17.33
2024-01-24T04:44:40.470Z,16.20
2024-01-24T04:47:08.780Z,14.23
2024-01-24T04:49:44.595Z,17.57
2024-01-24T04:52:17.310Z,16.30
2024-01-24T04:54:45.547Z,16.35
2024-01-24T04:57:13.869Z,17.65
2024-01-24T04:59:49.984Z,19.47
2024-01-24T05:02:24.455Z,12.80
2024-01-24T05:04:53.498Z,11.93
2024-01-24T05:07:21.677Z,7.78
2024-01-24T05:09:50.565Z,9.37
2024-01-24T05:12:18.955Z,12.02
2024-01-24T05:14:47.279Z,12.55
2024-01-24T05:17:15.906Z,15.50
2024-01-24T05:19:44.094Z,16.90
2024-01-24T05:22:13.663Z,7.93
2024-01-24T05:24:46.189Z,7.40
2024-01-24T05:27:14.862Z,15.95
2024-01-24T05:29:47.103Z,19.33
2024-01-24T05:32:15.328Z,19.33
2024-01-24T05:34:43.760Z,19.08
2024-01-24T05:37:12.051Z,19.98
2024-01-24T05:39:41.453Z,23.80
2024-01-24T05:42:09.791Z,19.17
2024-01-24T05:44:38.073Z,13.02
2024-01-24T05:47:07.349Z,12.50
2024-01-24T05:54:01.730Z,14.68
2024-01-24T05:56:30.299Z,16.83
2024-01-24T05:58:58.642Z,14.30
2024-01-24T06:01:26.968Z,18.90
2024-01-24T06:03:58.098Z,16.63
2024-01-24T06:06:26.815Z,19.42
2024-01-24T06:08:55.076Z,18.15
2024-01-24T06:11:23.703Z,31.07
2024-01-24T06:13:51.955Z,28.95
2024-01-24T06:16:19.993Z,28.65
2024-01-24T06:18:48.917Z,21.05
2024-01-24T06:21:17.410Z,17.83
2024-01-24T06:23:45.743Z,25.80
2024-01-24T06:26:15.078Z,27.13
2024-01-24T06:28:43.705Z,14.13
2024-01-24T06:31:12.165Z,12.60
2024-01-24T06:33:40.342Z,10.40
2024-01-24T06:36:10.478Z,19.58
2024-01-24T06:38:40.142Z,18.80
2024-01-24T06:41:09.062Z,17.47
2024-01-24T06:43:41.323Z,23.83
2024-01-24T06:46:10.284Z,17.98
2024-01-24T06:48:38.920Z,10.50
2024-01-24T06:51:07.549Z,9.18
2024-01-24T06:53:35.821Z,14.73
2024-01-24T06:56:05.074Z,9.73
2024-01-24T06:58:58.310Z,18.73
2024-01-24T07:01:30.734Z,18.05
2024-01-24T07:03:59.098Z,20.17
2024-01-24T07:06:28.140Z,17.67
2024-01-24T07:08:57.648Z,19.25
2024-01-24T07:11:27.401Z,17.30
2024-01-24T07:13:55.629Z,21.15
2024-01-24T07:16:24.248Z,20.73
2024-01-24T07:18:53.021Z,27.80
2024-01-24T07:21:21.984Z,25.30
2024-01-24T07:23:50.382Z,16.48
2024-01-24T07:26:19.034Z,21.05
2024-01-24T07:28:47.476Z,17.50
2024-01-24T07:31:16.135Z,21.55
2024-01-24T07:33:44.561Z,20.13
2024-01-24T07:36:13.102Z,23.15
2024-01-24T07:38:41.843Z,15.52
2024-01-24T07:41:11.914Z,9.80
2024-01-24T07:43:40.960Z,19.83
2024-01-24T07:46:10.785Z,17.75
2024-01-24T07:48:40.217Z,24.83
2024-01-24T07:51:09.471Z,27.63
2024-01-24T07:53:39.895Z,36.53
2024-01-24T07:56:15.869Z,20.55
2024-01-24T07:58:52.337Z,19.25
2024-01-24T08:01:22.065Z,28.42
2024-01-24T08:03:52.334Z,40.35
2024-01-24T08:06:23.134Z,18.17
2024-01-24T08:08:52.092Z,25.40
2024-01-24T08:11:23.162Z,39.90
2024-01-24T08:13:51.400Z,21.50
2024-01-24T08:16:22.489Z,20.15
2024-01-24T08:18:54.334Z,24.70
2024-01-24T08:21:22.936Z,19.70
2024-01-24T08:23:52.468Z,17.80
2024-01-24T08:26:21.354Z,15.65
2024-01-24T08:28:50.397Z,22.00
2024-01-24T08:31:19.112Z,22.63
2024-01-24T08:33:50.492Z,24.40
2024-01-24T08:36:21.252Z,28.90
2024-01-24T08:38:50.392Z,26.80
2024-01-24T08:41:18.958Z,30.17
2024-01-24T08:44:12.935Z,28.33
2024-01-24T08:46:41.773Z,33.60
2024-01-24T08:49:14.040Z,26.88
2024-01-24T08:51:42.763Z,27.92
2024-01-24T08:54:14.036Z,29.17
2024-01-24T08:56:42.718Z,24.47
2024-01-24T08:59:13.409Z,19.40
2024-01-24T09:01:42.635Z,23.55
2024-01-24T09:04:13.630Z,25.92
2024-01-24T09:06:44.380Z,21.13
2024-01-24T09:09:15.587Z,16.97
2024-01-24T09:11:55.645Z,17.60
2024-01-24T09:14:26.517Z,16.13
2024-01-24T09:16:55.621Z,16.98
2024-01-24T09:19:24.886Z,17.50
2024-01-24T09:21:53.638Z,14.10
2024-01-24T09:24:22.168Z,15.57
2024-01-24T09:26:50.614Z,14.02
2024-01-24T09:29:19.762Z,11.35
2024-01-24T09:31:48.849Z,11.48
2024-01-24T09:34:18.511Z,11.50
2024-01-24T09:36:47.400Z,12.13
2024-01-24T09:39:16.115Z,14.57
2024-01-24T09:41:45.211Z,17.20
2024-01-24T09:44:17.397Z,13.75
2024-01-24T09:46:46.302Z,14.63
2024-01-24T09:49:16.351Z,14.52
2024-01-24T09:51:46.167Z,12.73
2024-01-24T09:54:41.048Z,13.30
2024-01-24T09:57:10.946Z,13.27
2024-01-24T09:59:39.237Z,12.90
2024-01-24T10:02:08.706Z,12.02
2024-01-24T10:04:39.527Z,11.15
2024-01-24T10:07:10.221Z,10.32
2024-01-24T10:09:39.243Z,11.82
2024-01-24T10:12:07.949Z,12.47
2024-01-24T10:14:36.121Z,11.50
2024-01-24T10:17:07.280Z,9.77
2024-01-24T10:19:38.128Z,11.05
2024-01-24T10:22:10.444Z,12.48
2024-01-24T10:24:39.298Z,12.10
2024-01-24T10:27:10.447Z,11.70
2024-01-24T10:29:44.234Z,13.80
2024-01-24T10:32:13.202Z,14.13
2024-01-24T10:34:41.637Z,11.63
2024-01-24T10:37:11.434Z,12.10
2024-01-24T10:39:41.555Z,14.32
2024-01-24T10:42:16.168Z,11.70
2024-01-24T10:44:50.469Z,12.60
2024-01-24T10:47:19.148Z,13.55
2024-01-24T10:49:50.790Z,11.87
2024-01-24T10:52:20.918Z,13.65
2024-01-24T10:54:51.551Z,14.65
2024-01-24T10:57:20.834Z,14.85
2024-01-24T10:59:52.304Z,11.85
2024-01-24T11:02:20.938Z,15.37
2024-01-24T11:04:51.725Z,13.52
2024-01-24T11:07:28.042Z,14.73
2024-01-24T11:10:14.718Z,13.98
2024-01-24T11:13:57.669Z,16.20
2024-01-24T11:16:32.278Z,14.47
2024-01-24T11:19:21.934Z,17.05
2024-01-24T11:21:52.233Z,17.98
2024-01-24T11:24:42.451Z,16.90
2024-01-24T11:27:37.937Z,15.20
2024-01-24T11:30:08.657Z,15.23
2024-01-24T11:32:47.180Z,14.80
2024-01-24T11:35:30.018Z,17.20
2024-01-24T11:38:12.977Z,16.00
2024-01-24T11:40:54.551Z,17.88
2024-01-24T11:43:36.644Z,17.17
2024-01-24T11:46:10.259Z,17.48
2024-01-24T11:48:41.254Z,14.70
2024-01-24T11:51:12.425Z,16.38
2024-01-24T11:53:41.082Z,15.48
2024-01-24T11:56:16.020Z,14.70
2024-01-24T11:58:44.713Z,15.50
2024-01-24T12:01:13.816Z,15.52
2024-01-24T12:03:51.233Z,16.73
2024-01-24T12:06:20.413Z,20.95
2024-01-24T12:08:51.644Z,18.67
2024-01-24T12:11:22.471Z,20.23
2024-01-24T12:13:51.673Z,18.58
2024-01-24T12:16:21.054Z,15.93
2024-01-24T12:18:53.375Z,18.33
2024-01-24T12:21:23.639Z,16.50
2024-01-24T12:23:56.649Z,16.33
2024-01-24T12:26:27.192Z,17.05
2024-01-24T12:28:55.751Z,19.40
2024-01-24T12:31:31.213Z,18.23
2024-01-24T12:34:00.880Z,15.60
2024-01-24T12:36:30.079Z,18.75
2024-01-24T12:38:58.902Z,15.52
2024-01-24T12:41:29.673Z,26.40
2024-01-24T12:43:59.620Z,20.10
2024-01-24T12:46:30.715Z,18.73
2024-01-24T12:49:00.206Z,19.20
2024-01-24T12:51:30.934Z,17.33
2024-01-24T12:53:59.487Z,18.40
2024-01-24T12:56:28.156Z,21.83
2024-01-24T12:58:57.079Z,17.43
2024-01-24T13:01:27.300Z,17.42
2024-01-24T13:03:56.453Z,17.73
2024-01-24T13:06:30.062Z,16.33
2024-01-24T13:08:59.427Z,18.02
2024-01-24T13:11:27.798Z,16.10
2024-01-24T13:13:56.074Z,23.83
2024-01-24T13:16:25.282Z,16.08
2024-01-24T13:18:54.057Z,18.15
2024-01-24T13:21:23.037Z,18.88
2024-01-24T13:23:52.971Z,15.43
2024-01-24T13:26:21.349Z,18.42
2024-01-24T13:28:49.727Z,18.48
2024-01-24T13:32:08.121Z,18.88
2024-01-24T13:34:36.647Z,17.33
2024-01-24T13:37:12.082Z,15.80
2024-01-24T13:39:41.190Z,16.08
2024-01-24T13:42:17.215Z,14.85
2024-01-24T13:44:46.506Z,15.55
2024-01-24T13:47:15.851Z,20.05
2024-01-24T13:49:44.730Z,20.03
2024-01-24T13:52:13.376Z,14.10
2024-01-24T13:54:42.118Z,16.15
2024-01-24T13:57:10.658Z,19.67
2024-01-24T13:59:39.193Z,17.85
2024-01-24T14:02:08.364Z,15.37
2024-01-24T14:04:37.496Z,15.15
2024-01-24T14:07:07.373Z,17.33
2024-01-24T14:09:37.350Z,21.70
2024-01-24T14:12:07.436Z,15.95
2024-01-24T14:14:35.774Z,15.53
2024-01-24T14:17:04.280Z,19.02
2024-01-24T14:19:33.704Z,23.40
2024-01-24T14:22:03.723Z,19.38
2024-01-24T14:24:33.461Z,17.67
2024-01-24T14:27:01.621Z,21.40
2024-01-24T14:29:30.970Z,20.30
2024-01-24T14:32:00.801Z,22.10
2024-01-24T14:34:29.348Z,21.20
2024-01-24T14:37:04.255Z,22.30
2024-01-24T14:39:40.887Z,19.47
2024-01-24T14:42:11.056Z,19.35
2024-01-24T14:44:39.626Z,21.08
2024-01-24T14:47:08.457Z,23.33
2024-01-24T14:49:37.140Z,24.25
2024-01-24T14:52:06.877Z,23.83
2024-01-24T14:54:36.480Z,22.73
2024-01-24T14:57:05.040Z,19.77
2024-01-24T14:59:34.201Z,18.92
2024-01-24T15:02:04.083Z,18.27
2024-01-24T15:04:32.755Z,17.07
2024-01-24T15:07:02.420Z,15.95
2024-01-24T15:09:34.141Z,18.02
2024-01-24T15:12:03.573Z,18.65
2024-01-24T15:14:31.909Z,16.88
2024-01-24T15:17:00.304Z,16.90
2024-01-24T15:19:30.094Z,19.90
2024-01-24T15:21:58.860Z,20.90
2024-01-24T15:24:27.112Z,19.25
2024-01-24T15:26:55.942Z,15.93
2024-01-24T15:29:24.669Z,24.83
2024-01-24T15:31:54.127Z,15.77
2024-01-24T15:34:23.019Z,20.90
2024-01-24T15:36:52.281Z,18.08
2024-01-24T15:39:21.677Z,21.98
2024-01-24T15:41:50.942Z,26.10
2024-01-24T15:44:19.906Z,19.95
2024-01-24T15:46:48.997Z,21.38
2024-01-24T15:49:17.718Z,20.85
2024-01-24T15:51:46.125Z,18.60
2024-01-24T15:54:14.404Z,20.20
2024-01-24T15:56:43.070Z,25.13
2024-01-24T15:59:12.164Z,17.85
2024-01-24T16:01:48.861Z,22.63
2024-01-24T16:05:07.501Z,44.88
2024-01-24T16:07:36.292Z,29.13
2024-01-24T16:10:05.973Z,23.83
2024-01-24T16:12:34.454Z,28.25
2024-01-24T16:15:05.309Z,32.47
2024-01-24T16:17:33.530Z,22.55
2024-01-24T16:20:02.212Z,27.50
2024-01-24T16:22:36.322Z,28.27
2024-01-24T16:25:08.137Z,30.38
2024-01-24T16:27:39.415Z,55.40
2024-01-24T16:30:09.895Z,44.70
2024-01-24T16:32:38.221Z,342.07
2024-01-24T16:35:10.340Z,85.35
2024-01-24T16:37:41.566Z,101.72
2024-01-24T16:40:10.258Z,104.70
2024-01-24T16:42:38.762Z,304.48
2024-01-24T16:45:08.546Z,279.93
2024-01-24T16:47:37.293Z,217.45
2024-01-24T16:50:07.189Z,108.68
2024-01-24T16:52:41.484Z,76.97
2024-01-24T16:55:12.649Z,76.57
2024-01-24T16:57:41.979Z,55.53
2024-01-24T17:00:15.981Z,191.88
2024-01-24T17:02:50.211Z,77.13
2024-01-24T17:05:23.081Z,58.00
2024-01-24T17:07:51.264Z,107.28
2024-01-24T17:10:19.931Z,114.57
2024-01-24T17:12:50.456Z,112.90
2024-01-24T17:15:19.692Z,62.22
2024-01-24T17:17:47.960Z,90.22
2024-01-24T17:20:16.276Z,80.82
2024-01-24T17:22:45.374Z,69.70
2024-01-24T17:25:16.483Z,65.68
2024-01-24T17:27:46.315Z,70.18
2024-01-24T17:30:15.075Z,83.30
2024-01-24T17:32:44.206Z,83.45
2024-01-24T17:35:13.094Z,110.67
2024-01-24T17:37:41.793Z,99.50
2024-01-24T17:40:10.782Z,76.60
2024-01-24T17:48:59.305Z,61.72
2024-01-24T17:51:29.074Z,74.80
2024-01-24T17:53:58.344Z,74.70
2024-01-24T17:56:26.679Z,81.93
2024-01-24T17:58:55.325Z,74.82
2024-01-24T18:01:24.134Z,63.80
2024-01-24T18:03:52.876Z,61.50
2024-01-24T18:06:22.805Z,70.10
2024-01-24T18:08:51.810Z,72.88
2024-01-24T18:11:19.996Z,78.38
2024-01-24T18:18:27.721Z,65.97
2024-01-24T18:20:56.719Z,40.38
2024-01-24T18:23:25.261Z,44.05
2024-01-24T18:25:53.984Z,38.92
2024-01-24T18:28:22.174Z,180.23
2024-01-24T18:30:51.324Z,78.60
2024-01-24T18:33:20.766Z,67.80
2024-01-24T18:35:49.021Z,54.25
2024-01-24T18:38:17.230Z,58.38
2024-01-24T18:40:46.703Z,58.40
2024-01-24T18:43:15.571Z,55.10
2024-01-24T18:45:43.882Z,65.10
2024-01-24T18:48:12.352Z,61.03
2024-01-24T18:50:41.279Z,73.53
2024-01-24T18:53:11.727Z,88.05
2024-01-24T18:55:40.277Z,71.43
2024-01-24T18:58:10.160Z,58.67
2024-01-24T19:04:48.932Z,48.90
2024-01-24T19:07:18.804Z,63.08
2024-01-24T19:09:48.386Z,42.97
2024-01-24T19:12:17.832Z,95.28
2024-01-24T19:14:46.945Z,65.70
2024-01-24T19:17:16.081Z,61.13
2024-01-24T19:19:45.294Z,62.67
2024-01-24T19:22:14.060Z,48.97
2024-01-24T19:25:33.129Z,55.90
2024-01-24T19:28:02.696Z,56.80
2024-01-24T19:30:31.229Z,56.13
2024-01-24T19:32:59.601Z,63.45
2024-01-24T19:35:31.248Z,61.33
2024-01-24T19:38:00.200Z,57.83
2024-01-24T19:40:28.391Z,64.30
2024-01-24T19:42:57.282Z,63.92
2024-01-24T19:45:27.620Z,60.50
2024-01-24T19:47:56.158Z,62.87
2024-01-24T19:50:27.909Z,64.18
2024-01-24T19:52:56.908Z,62.50
2024-01-24T19:55:25.973Z,71.07
2024-01-24T19:57:59.481Z,80.72
2024-01-24T20:00:28.326Z,79.63
2024-01-24T20:02:57.650Z,79.13
2024-01-24T20:05:26.263Z,80.25
2024-01-24T20:07:55.052Z,82.45
2024-01-24T20:10:23.447Z,69.72
2024-01-24T20:12:51.749Z,68.50
2024-01-24T20:15:22.586Z,81.30
2024-01-24T20:19:06.336Z,86.28
2024-01-24T20:21:42.213Z,69.93
2024-01-24T20:24:12.881Z,69.03
2024-01-24T20:26:42.731Z,64.77
2024-01-24T20:29:10.888Z,67.45
2024-01-24T20:31:38.985Z,62.60
2024-01-24T20:34:08.883Z,67.68
2024-01-24T20:36:37.805Z,70.60
2024-01-24T20:39:05.987Z,83.00
2024-01-24T20:41:34.055Z,82.78
2024-01-24T20:44:03.364Z,95.32
2024-01-24T20:46:31.958Z,100.90
2024-01-24T20:49:00.556Z,91.50
2024-01-24T20:51:29.890Z,118.83
2024-01-24T20:54:00.049Z,101.25
2024-01-24T20:56:28.181Z,108.00
2024-01-24T20:58:56.414Z,103.53
2024-01-24T21:01:25.218Z,106.35
2024-01-24T21:03:54.468Z,112.37
2024-01-24T21:06:26.542Z,88.75
2024-01-24T21:08:56.544Z,97.38
2024-01-24T21:11:24.653Z,97.68
2024-01-24T21:13:55.424Z,107.55
2024-01-24T21:16:23.614Z,109.90
2024-01-24T21:18:52.325Z,95.97
2024-01-24T21:21:20.732Z,63.67
2024-01-24T21:23:50.508Z,89.03
2024-01-24T21:26:19.572Z,98.22
2024-01-24T21:28:48.150Z,92.70
2024-01-24T21:31:16.476Z,96.18
2024-01-24T21:33:45.709Z,86.32
2024-01-24T21:36:14.308Z,74.88
2024-01-24T21:38:43.063Z,82.88
2024-01-24T21:41:11.272Z,83.83
2024-01-24T21:43:39.931Z,80.40
2024-01-24T21:46:09.128Z,59.95
2024-01-24T21:48:38.492Z,70.50
2024-01-24T21:51:07.023Z,54.35
2024-01-24T21:53:36.197Z,47.20
2024-01-24T21:56:04.588Z,48.92
2024-01-24T21:58:33.993Z,58.97
2024-01-24T22:01:02.812Z,54.95
2024-01-24T22:03:57.558Z,59.78
2024-01-24T22:06:25.996Z,73.70
2024-01-24T22:08:58.124Z,81.80
2024-01-24T22:11:28.530Z,71.70
2024-01-24T22:13:57.235Z,76.07
2024-01-24T22:16:25.353Z,83.43
2024-01-24T22:18:54.386Z,89.37
2024-01-24T22:21:23.386Z,69.45
2024-01-24T22:23:52.265Z,40.58
2024-01-24T22:26:21.534Z,54.47
2024-01-24T22:28:50.205Z,44.83
2024-01-24T22:31:21.122Z,34.30
2024-01-24T22:33:50.152Z,46.88
2024-01-24T22:36:18.585Z,48.50
2024-01-24T22:38:49.362Z,24.00
2024-01-24T22:41:18.567Z,49.47
2024-01-24T22:43:47.051Z,51.10
2024-01-24T22:46:15.284Z,42.22
2024-01-24T22:48:44.035Z,54.83
2024-01-24T22:51:14.655Z,50.83
2024-01-24T22:53:43.854Z,50.63
2024-01-24T22:56:12.341Z,52.23
2024-01-24T22:58:40.932Z,50.63
2024-01-24T23:01:09.502Z,42.92
2024-01-24T23:03:37.691Z,48.25
2024-01-24T23:06:06.436Z,29.45
2024-01-24T23:08:34.536Z,43.70
2024-01-24T23:11:04.181Z,47.15
2024-01-24T23:13:34.503Z,49.53
2024-01-24T23:17:18.155Z,57.17
2024-01-24T23:19:46.597Z,59.88
2024-01-24T23:22:15.214Z,29.43
2024-01-24T23:24:44.582Z,53.47
2024-01-24T23:27:13.098Z,31.20
2024-01-24T23:29:41.758Z,45.45
2024-01-24T23:32:10.459Z,40.45
2024-01-24T23:34:38.952Z,41.30
2024-01-24T23:37:07.627Z,36.67
2024-01-24T23:39:36.655Z,29.27
2024-01-24T23:42:05.290Z,23.23
2024-01-24T23:44:35.552Z,35.33
2024-01-24T23:47:03.895Z,43.70
2024-01-24T23:49:32.447Z,49.08
2024-01-24T23:52:01.707Z,46.53
2024-01-24T23:54:30.126Z,49.03
2024-01-24T23:56:58.206Z,47.72
2024-01-24T23:59:26.983Z,47.90
